sensor_id;sensor_type;location;lat;lon;timestamp;pressure;altitude;pressure_sealevel;temperature;humidity
82784;BME280;72520;55.762;37.780;2024-01-30T00:02:08;101056.19;;;1.75;68.68
82784;BME280;72520;55.762;37.780;2024-01-30T00:05:10;101058.00;;;1.68;68.64
82784;BME280;72520;55.762;37.780;2024-01-30T00:08:13;101065.84;;;1.71;68.69
82784;BME280;72520;55.762;37.780;2024-01-30T00:11:16;101057.25;;;1.54;68.68
82784;BME280;72520;55.762;37.780;2024-01-30T00:14:18;101053.81;;;1.49;69.12
82784;BME280;72520;55.762;37.780;2024-01-30T00:17:20;101051.16;;;1.50;69.15
82784;BME280;72520;55.762;37.780;2024-01-30T00:20:22;101060.72;;;1.59;68.62
82784;BME280;72520;55.762;37.780;2024-01-30T00:23:26;101049.31;;;1.63;68.83
82784;BME280;72520;55.762;37.780;2024-01-30T00:26:28;101044.06;;;1.60;68.81
82784;BME280;72520;55.762;37.780;2024-01-30T00:29:30;101046.78;;;1.56;69.03
82784;BME280;72520;55.762;37.780;2024-01-30T00:32:34;101041.63;;;1.42;68.95
82784;BME280;72520;55.762;37.780;2024-01-30T00:35:36;101044.06;;;1.66;69.88
82784;BME280;72520;55.762;37.780;2024-01-30T00:38:40;101039.88;;;1.41;69.46
82784;BME280;72520;55.762;37.780;2024-01-30T00:41:42;101045.09;;;1.45;69.63
82784;BME280;72520;55.762;37.780;2024-01-30T00:44:44;101044.09;;;1.57;69.25
82784;BME280;72520;55.762;37.780;2024-01-30T00:47:46;101030.84;;;1.71;68.58
82784;BME280;72520;55.762;37.780;2024-01-30T00:50:48;101036.09;;;1.72;69.23
82784;BME280;72520;55.762;37.780;2024-01-30T00:53:51;101035.31;;;1.64;69.08
82784;BME280;72520;55.762;37.780;2024-01-30T00:56:54;101040.72;;;1.49;69.48
82784;BME280;72520;55.762;37.780;2024-01-30T00:59:56;101028.28;;;1.68;68.42
82784;BME280;72520;55.762;37.780;2024-01-30T01:02:58;101035.38;;;1.58;69.25
82784;BME280;72520;55.762;37.780;2024-01-30T01:06:01;101037.16;;;1.54;69.28
82784;BME280;72520;55.762;37.780;2024-01-30T01:09:05;101025.53;;;1.78;70.47
82784;BME280;72520;55.762;37.780;2024-01-30T01:12:07;101022.31;;;1.52;69.06
82784;BME280;72520;55.762;37.780;2024-01-30T01:15:09;101027.63;;;1.43;69.93
82784;BME280;72520;55.762;37.780;2024-01-30T01:18:12;101018.06;;;1.39;69.83
82784;BME280;72520;55.762;37.780;2024-01-30T01:21:14;101024.03;;;1.56;69.63
82784;BME280;72520;55.762;37.780;2024-01-30T01:24:18;101015.22;;;1.63;70.29
82784;BME280;72520;55.762;37.780;2024-01-30T01:27:21;101021.09;;;1.85;68.63
82784;BME280;72520;55.762;37.780;2024-01-30T01:30:23;101012.16;;;2.01;68.26
82784;BME280;72520;55.762;37.780;2024-01-30T01:33:26;101009.69;;;1.90;67.79
82784;BME280;72520;55.762;37.780;2024-01-30T01:36:28;101008.00;;;1.83;68.54
82784;BME280;72520;55.762;37.780;2024-01-30T01:39:32;101002.84;;;1.76;69.21
82784;BME280;72520;55.762;37.780;2024-01-30T01:42:34;101009.91;;;1.68;69.35
82784;BME280;72520;55.762;37.780;2024-01-30T01:45:36;100986.31;;;1.65;69.03
82784;BME280;72520;55.762;37.780;2024-01-30T01:48:38;100989.88;;;1.59;69.04
82784;BME280;72520;55.762;37.780;2024-01-30T01:51:42;100992.44;;;1.67;69.45
82784;BME280;72520;55.762;37.780;2024-01-30T01:54:46;100997.50;;;1.82;69.41
82784;BME280;72520;55.762;37.780;2024-01-30T01:57:48;100998.47;;;1.75;69.27
82784;BME280;72520;55.762;37.780;2024-01-30T02:00:51;101005.34;;;1.86;68.96
82784;BME280;72520;55.762;37.780;2024-01-30T02:03:54;100995.59;;;1.94;68.68
82784;BME280;72520;55.762;37.780;2024-01-30T02:06:56;100998.13;;;2.07;69.04
82784;BME280;72520;55.762;37.780;2024-01-30T02:09:59;100996.47;;;1.96;68.64
82784;BME280;72520;55.762;37.780;2024-01-30T02:13:03;100999.94;;;1.98;68.36
82784;BME280;72520;55.762;37.780;2024-01-30T02:16:06;100994.84;;;1.85;68.89
82784;BME280;72520;55.762;37.780;2024-01-30T02:19:08;100995.72;;;1.87;68.55
82784;BME280;72520;55.762;37.780;2024-01-30T02:22:13;101002.75;;;1.83;69.34
82784;BME280;72520;55.762;37.780;2024-01-30T02:25:16;100997.47;;;1.85;69.04
82784;BME280;72520;55.762;37.780;2024-01-30T02:28:19;101006.94;;;1.99;69.53
82784;BME280;72520;55.762;37.780;2024-01-30T02:31:22;100994.41;;;2.24;68.27
82784;BME280;72520;55.762;37.780;2024-01-30T02:34:24;100990.97;;;2.18;68.66
82784;BME280;72520;55.762;37.780;2024-01-30T02:37:28;100988.16;;;2.33;68.50
82784;BME280;72520;55.762;37.780;2024-01-30T02:40:30;100989.09;;;2.27;67.72
82784;BME280;72520;55.762;37.780;2024-01-30T02:43:33;100984.31;;;2.58;67.33
82784;BME280;72520;55.762;37.780;2024-01-30T02:46:35;100980.06;;;2.48;67.26
82784;BME280;72520;55.762;37.780;2024-01-30T02:49:37;100989.94;;;2.31;67.86
82784;BME280;72520;55.762;37.780;2024-01-30T02:52:40;100982.97;;;2.25;67.69
82784;BME280;72520;55.762;37.780;2024-01-30T02:55:44;100978.66;;;2.23;69.57
82784;BME280;72520;55.762;37.780;2024-01-30T02:58:46;100983.97;;;2.17;68.44
82784;BME280;72520;55.762;37.780;2024-01-30T03:01:48;100985.91;;;2.02;69.54
82784;BME280;72520;55.762;37.780;2024-01-30T03:04:50;100998.94;;;2.09;68.75
82784;BME280;72520;55.762;37.780;2024-01-30T03:07:54;101005.81;;;2.19;69.22
82784;BME280;72520;55.762;37.780;2024-01-30T03:10:56;101015.06;;;2.48;67.62
82784;BME280;72520;55.762;37.780;2024-01-30T03:13:58;101004.41;;;2.61;67.48
82784;BME280;72520;55.762;37.780;2024-01-30T03:17:00;101012.63;;;2.35;67.56
82784;BME280;72520;55.762;37.780;2024-01-30T03:20:04;101015.38;;;2.27;68.33
82784;BME280;72520;55.762;37.780;2024-01-30T03:23:08;101009.28;;;2.24;68.38
82784;BME280;72520;55.762;37.780;2024-01-30T03:26:11;101016.28;;;2.22;68.79
82784;BME280;72520;55.762;37.780;2024-01-30T03:29:13;101021.69;;;2.10;69.37
82784;BME280;72520;55.762;37.780;2024-01-30T03:32:16;101030.25;;;2.27;68.84
82784;BME280;72520;55.762;37.780;2024-01-30T03:35:18;101018.16;;;2.14;69.37
82784;BME280;72520;55.762;37.780;2024-01-30T03:38:22;101024.22;;;2.19;69.27
82784;BME280;72520;55.762;37.780;2024-01-30T03:41:24;101017.38;;;2.07;69.76
82784;BME280;72520;55.762;37.780;2024-01-30T03:44:26;101005.91;;;2.13;70.49
82784;BME280;72520;55.762;37.780;2024-01-30T03:47:28;101013.78;;;2.11;69.62
82784;BME280;72520;55.762;37.780;2024-01-30T03:50:30;101010.25;;;2.15;70.28
82784;BME280;72520;55.762;37.780;2024-01-30T03:53:34;101016.19;;;2.31;68.93
82784;BME280;72520;55.762;37.780;2024-01-30T03:56:36;101020.59;;;2.30;69.26
82784;BME280;72520;55.762;37.780;2024-01-30T03:59:41;101036.38;;;2.27;69.45
82784;BME280;72520;55.762;37.780;2024-01-30T04:02:44;101033.78;;;2.24;69.58
82784;BME280;72520;55.762;37.780;2024-01-30T04:05:47;101039.22;;;2.11;70.49
82784;BME280;72520;55.762;37.780;2024-01-30T04:08:50;101032.16;;;2.14;69.43
82784;BME280;72520;55.762;37.780;2024-01-30T04:11:52;101032.59;;;2.51;68.90
82784;BME280;72520;55.762;37.780;2024-01-30T04:14:54;101026.63;;;2.35;68.97
82784;BME280;72520;55.762;37.780;2024-01-30T04:17:57;101028.47;;;2.30;69.16
82784;BME280;72520;55.762;37.780;2024-01-30T04:20:59;101026.53;;;2.43;68.64
82784;BME280;72520;55.762;37.780;2024-01-30T04:24:04;101027.41;;;2.45;68.59
82784;BME280;72520;55.762;37.780;2024-01-30T04:27:06;101023.03;;;2.42;69.16
82784;BME280;72520;55.762;37.780;2024-01-30T04:30:09;101016.78;;;2.52;68.69
82784;BME280;72520;55.762;37.780;2024-01-30T04:33:11;101009.72;;;2.58;68.56
82784;BME280;72520;55.762;37.780;2024-01-30T04:36:13;101008.41;;;2.87;67.77
82784;BME280;72520;55.762;37.780;2024-01-30T04:39:17;101013.81;;;2.78;67.95
82784;BME280;72520;55.762;37.780;2024-01-30T04:42:19;101016.44;;;2.77;68.21
82784;BME280;72520;55.762;37.780;2024-01-30T04:45:21;101024.59;;;2.57;68.73
82784;BME280;72520;55.762;37.780;2024-01-30T04:48:23;101021.09;;;2.58;69.10
82784;BME280;72520;55.762;37.780;2024-01-30T04:51:25;101021.78;;;2.69;68.41
82784;BME280;72520;55.762;37.780;2024-01-30T04:54:29;101029.78;;;2.63;68.46
82784;BME280;72520;55.762;37.780;2024-01-30T04:57:31;101029.69;;;2.69;68.66
82784;BME280;72520;55.762;37.780;2024-01-30T05:00:34;101017.06;;;2.95;68.40
82784;BME280;72520;55.762;37.780;2024-01-30T05:03:37;101006.59;;;2.91;67.81
82784;BME280;72520;55.762;37.780;2024-01-30T05:06:39;101004.06;;;2.85;67.80
82784;BME280;72520;55.762;37.780;2024-01-30T05:09:42;100995.03;;;3.02;68.23
82784;BME280;72520;55.762;37.780;2024-01-30T05:12:45;100993.06;;;3.15;67.25
82784;BME280;72520;55.762;37.780;2024-01-30T05:15:47;100992.72;;;3.36;66.79
82784;BME280;72520;55.762;37.780;2024-01-30T05:18:49;101010.56;;;3.18;67.37
82784;BME280;72520;55.762;37.780;2024-01-30T05:21:51;101012.38;;;3.14;67.58
82784;BME280;72520;55.762;37.780;2024-01-30T05:24:54;101024.84;;;3.01;67.49
82784;BME280;72520;55.762;37.780;2024-01-30T05:27:56;101033.78;;;2.90;67.83
82784;BME280;72520;55.762;37.780;2024-01-30T05:30:59;101026.53;;;3.05;67.70
82784;BME280;72520;55.762;37.780;2024-01-30T05:34:01;101036.03;;;3.16;67.30
82784;BME280;72520;55.762;37.780;2024-01-30T05:37:03;101026.06;;;3.34;66.71
82784;BME280;72520;55.762;37.780;2024-01-30T05:40:08;101030.06;;;3.04;67.48
82784;BME280;72520;55.762;37.780;2024-01-30T05:43:10;101031.09;;;2.93;68.47
82784;BME280;72520;55.762;37.780;2024-01-30T05:46:12;101029.94;;;3.12;68.36
82784;BME280;72520;55.762;37.780;2024-01-30T05:49:14;101034.06;;;3.27;67.12
82784;BME280;72520;55.762;37.780;2024-01-30T05:52:17;101033.34;;;3.17;67.39
82784;BME280;72520;55.762;37.780;2024-01-30T05:55:21;101050.22;;;3.05;68.18
82784;BME280;72520;55.762;37.780;2024-01-30T05:58:23;101054.44;;;3.14;67.92
82784;BME280;72520;55.762;37.780;2024-01-30T06:01:25;101047.31;;;3.21;67.51
82784;BME280;72520;55.762;37.780;2024-01-30T06:04:27;101046.56;;;3.14;67.91
82784;BME280;72520;55.762;37.780;2024-01-30T06:07:29;101052.53;;;3.25;68.06
82784;BME280;72520;55.762;37.780;2024-01-30T06:10:33;101055.31;;;3.15;67.31
82784;BME280;72520;55.762;37.780;2024-01-30T06:13:35;101055.41;;;3.08;67.68
82784;BME280;72520;55.762;37.780;2024-01-30T06:16:37;101062.44;;;3.06;68.12
82784;BME280;72520;55.762;37.780;2024-01-30T06:19:39;101063.28;;;3.10;68.00
82784;BME280;72520;55.762;37.780;2024-01-30T06:22:42;101060.53;;;3.18;67.48
82784;BME280;72520;55.762;37.780;2024-01-30T06:25:45;101050.72;;;3.29;67.20
82784;BME280;72520;55.762;37.780;2024-01-30T06:28:48;101052.19;;;3.45;66.77
82784;BME280;72520;55.762;37.780;2024-01-30T06:31:50;101062.19;;;3.25;67.60
82784;BME280;72520;55.762;37.780;2024-01-30T06:34:52;101071.19;;;3.08;68.13
82784;BME280;72520;55.762;37.780;2024-01-30T06:37:54;101080.28;;;2.86;69.05
82784;BME280;72520;55.762;37.780;2024-01-30T06:40:57;101083.38;;;3.14;68.45
82784;BME280;72520;55.762;37.780;2024-01-30T06:44:01;101075.28;;;3.29;67.58
82784;BME280;72520;55.762;37.780;2024-01-30T06:47:04;101073.84;;;3.62;67.11
82784;BME280;72520;55.762;37.780;2024-01-30T06:50:07;101070.22;;;3.68;66.04
82784;BME280;72520;55.762;37.780;2024-01-30T06:53:10;101066.06;;;3.56;66.34
82784;BME280;72520;55.762;37.780;2024-01-30T06:56:13;101077.94;;;3.80;66.34
82784;BME280;72520;55.762;37.780;2024-01-30T06:59:15;101074.50;;;3.75;65.84
82784;BME280;72520;55.762;37.780;2024-01-30T07:02:17;101078.81;;;3.80;66.06
82784;BME280;72520;55.762;37.780;2024-01-30T07:05:20;101076.41;;;3.67;66.46
82784;BME280;72520;55.762;37.780;2024-01-30T07:08:22;101079.94;;;3.64;66.22
82784;BME280;72520;55.762;37.780;2024-01-30T07:11:26;101089.94;;;3.44;67.37
82784;BME280;72520;55.762;37.780;2024-01-30T07:14:29;101088.88;;;3.55;66.64
82784;BME280;72520;55.762;37.780;2024-01-30T07:17:32;101089.91;;;3.45;67.38
82784;BME280;72520;55.762;37.780;2024-01-30T07:20:34;101099.63;;;3.42;67.69
82784;BME280;72520;55.762;37.780;2024-01-30T07:23:36;101101.28;;;3.49;67.35
82784;BME280;72520;55.762;37.780;2024-01-30T07:26:40;101087.00;;;3.64;66.72
82784;BME280;72520;55.762;37.780;2024-01-30T07:29:43;101105.25;;;3.74;66.51
82784;BME280;72520;55.762;37.780;2024-01-30T07:32:45;101099.00;;;3.80;66.47
82784;BME280;72520;55.762;37.780;2024-01-30T07:35:48;101100.94;;;3.69;66.61
82784;BME280;72520;55.762;37.780;2024-01-30T07:38:50;101101.75;;;3.72;66.43
82784;BME280;72520;55.762;37.780;2024-01-30T07:41:56;101101.56;;;3.84;66.33
82784;BME280;72520;55.762;37.780;2024-01-30T07:44:58;101104.34;;;3.75;66.77
82784;BME280;72520;55.762;37.780;2024-01-30T07:48:00;101105.50;;;3.57;67.14
82784;BME280;72520;55.762;37.780;2024-01-30T07:51:03;101110.19;;;3.39;68.07
82784;BME280;72520;55.762;37.780;2024-01-30T07:54:11;101105.59;;;3.51;67.13
82784;BME280;72520;55.762;37.780;2024-01-30T07:57:17;101096.66;;;3.63;67.08
82784;BME280;72520;55.762;37.780;2024-01-30T08:00:20;101090.34;;;3.72;67.01
82784;BME280;72520;55.762;37.780;2024-01-30T08:03:22;101093.97;;;3.66;66.85
82784;BME280;72520;55.762;37.780;2024-01-30T08:06:24;101098.47;;;3.59;66.72
82784;BME280;72520;55.762;37.780;2024-01-30T08:09:26;101103.75;;;3.58;67.42
82784;BME280;72520;55.762;37.780;2024-01-30T08:12:30;101101.38;;;3.41;67.57
82784;BME280;72520;55.762;37.780;2024-01-30T08:15:32;101104.00;;;3.43;67.85
82784;BME280;72520;55.762;37.780;2024-01-30T08:18:34;101112.03;;;3.34;68.06
82784;BME280;72520;55.762;37.780;2024-01-30T08:21:37;101112.09;;;3.29;68.04
82784;BME280;72520;55.762;37.780;2024-01-30T08:24:40;101106.13;;;3.20;69.04
82784;BME280;72520;55.762;37.780;2024-01-30T08:27:44;101112.88;;;3.36;68.50
82784;BME280;72520;55.762;37.780;2024-01-30T08:30:47;101107.53;;;3.42;67.86
82784;BME280;72520;55.762;37.780;2024-01-30T08:33:49;101108.44;;;3.39;68.48
82784;BME280;72520;55.762;37.780;2024-01-30T08:36:51;101105.00;;;3.36;68.44
82784;BME280;72520;55.762;37.780;2024-01-30T08:39:53;101114.44;;;3.47;68.18
82784;BME280;72520;55.762;37.780;2024-01-30T08:42:57;101104.50;;;3.65;67.84
82784;BME280;72520;55.762;37.780;2024-01-30T08:45:59;101105.53;;;3.56;67.46
82784;BME280;72520;55.762;37.780;2024-01-30T08:49:02;101101.81;;;3.68;67.30
82784;BME280;72520;55.762;37.780;2024-01-30T08:52:04;101100.69;;;3.84;66.77
82784;BME280;72520;55.762;37.780;2024-01-30T08:55:08;101089.47;;;3.71;67.16
82784;BME280;72520;55.762;37.780;2024-01-30T08:58:12;101083.19;;;3.80;66.58
82784;BME280;72520;55.762;37.780;2024-01-30T09:01:14;101093.56;;;3.89;66.84
82784;BME280;72520;55.762;37.780;2024-01-30T09:04:16;101100.66;;;3.85;67.09
82784;BME280;72520;55.762;37.780;2024-01-30T09:07:18;101099.81;;;3.83;67.13
82784;BME280;72520;55.762;37.780;2024-01-30T09:10:21;101110.31;;;3.85;66.72
82784;BME280;72520;55.762;37.780;2024-01-30T09:13:24;101102.34;;;3.91;67.43
82784;BME280;72520;55.762;37.780;2024-01-30T09:16:26;101105.78;;;3.94;66.70
82784;BME280;72520;55.762;37.780;2024-01-30T09:19:29;101110.75;;;4.09;66.00
82784;BME280;72520;55.762;37.780;2024-01-30T09:22:32;101107.06;;;4.20;65.81
82784;BME280;72520;55.762;37.780;2024-01-30T09:25:34;101102.78;;;4.13;65.82
82784;BME280;72520;55.762;37.780;2024-01-30T09:28:37;101106.50;;;4.02;66.86
82784;BME280;72520;55.762;37.780;2024-01-30T09:31:43;101102.84;;;4.09;67.04
82784;BME280;72520;55.762;37.780;2024-01-30T09:34:45;101096.25;;;4.35;65.57
82784;BME280;72520;55.762;37.780;2024-01-30T09:37:47;101096.25;;;4.33;65.26
82784;BME280;72520;55.762;37.780;2024-01-30T09:40:54;101087.72;;;4.19;65.87
82784;BME280;72520;55.762;37.780;2024-01-30T09:43:59;101082.06;;;4.40;65.32
82784;BME280;72520;55.762;37.780;2024-01-30T09:47:03;101086.97;;;4.13;65.62
82784;BME280;72520;55.762;37.780;2024-01-30T09:50:07;101092.09;;;4.22;65.74
82784;BME280;72520;55.762;37.780;2024-01-30T09:53:09;101093.94;;;4.17;65.73
82784;BME280;72520;55.762;37.780;2024-01-30T09:56:13;101090.81;;;3.96;66.47
82784;BME280;72520;55.762;37.780;2024-01-30T09:59:17;101079.94;;;4.15;66.30
82784;BME280;72520;55.762;37.780;2024-01-30T10:02:19;101080.22;;;3.99;66.58
82784;BME280;72520;55.762;37.780;2024-01-30T10:05:26;101080.25;;;3.98;66.83
82784;BME280;72520;55.762;37.780;2024-01-30T10:08:28;101092.69;;;3.88;66.96
82784;BME280;72520;55.762;37.780;2024-01-30T10:11:31;101099.63;;;3.94;67.30
82784;BME280;72520;55.762;37.780;2024-01-30T10:14:37;101101.22;;;4.02;67.07
82784;BME280;72520;55.762;37.780;2024-01-30T10:17:40;101111.63;;;4.10;66.42
82784;BME280;72520;55.762;37.780;2024-01-30T10:20:42;101107.94;;;4.19;66.75
82784;BME280;72520;55.762;37.780;2024-01-30T10:23:44;101108.63;;;4.30;65.82
82784;BME280;72520;55.762;37.780;2024-01-30T10:26:46;101109.81;;;4.14;65.95
82784;BME280;72520;55.762;37.780;2024-01-30T10:29:50;101101.84;;;4.17;65.91
82784;BME280;72520;55.762;37.780;2024-01-30T10:32:53;101107.75;;;4.29;65.73
82784;BME280;72520;55.762;37.780;2024-01-30T10:36:00;101097.72;;;4.48;65.53
82784;BME280;72520;55.762;37.780;2024-01-30T10:39:02;101090.03;;;4.36;65.39
82784;BME280;72520;55.762;37.780;2024-01-30T10:42:12;101076.88;;;4.36;65.24
82784;BME280;72520;55.762;37.780;2024-01-30T10:45:15;101101.84;;;4.18;66.11
82784;BME280;72520;55.762;37.780;2024-01-30T10:48:19;101090.34;;;4.21;66.16
82784;BME280;72520;55.762;37.780;2024-01-30T10:51:26;101094.81;;;4.16;66.27
82784;BME280;72520;55.762;37.780;2024-01-30T10:54:29;101091.31;;;4.17;66.49
82784;BME280;72520;55.762;37.780;2024-01-30T10:57:34;101092.25;;;4.13;66.85
82784;BME280;72520;55.762;37.780;2024-01-30T11:00:38;101090.16;;;4.30;66.16
82784;BME280;72520;55.762;37.780;2024-01-30T11:03:41;101094.63;;;4.28;66.24
82784;BME280;72520;55.762;37.780;2024-01-30T11:06:43;101093.13;;;4.13;66.31
82784;BME280;72520;55.762;37.780;2024-01-30T11:09:49;101091.06;;;4.29;65.87
82784;BME280;72520;55.762;37.780;2024-01-30T11:12:51;101084.81;;;4.34;66.35
82784;BME280;72520;55.762;37.780;2024-01-30T11:15:55;101088.41;;;4.29;66.89
82784;BME280;72520;55.762;37.780;2024-01-30T11:19:00;101094.81;;;4.17;66.70
82784;BME280;72520;55.762;37.780;2024-01-30T11:22:03;101101.66;;;4.27;66.37
82784;BME280;72520;55.762;37.780;2024-01-30T11:25:06;101099.06;;;4.24;66.01
82784;BME280;72520;55.762;37.780;2024-01-30T11:28:15;101101.97;;;4.10;66.74
82784;BME280;72520;55.762;37.780;2024-01-30T11:31:20;101114.34;;;4.05;66.71
82784;BME280;72520;55.762;37.780;2024-01-30T11:34:22;101111.69;;;4.05;66.33
82784;BME280;72520;55.762;37.780;2024-01-30T11:37:25;101116.97;;;4.05;66.86
82784;BME280;72520;55.762;37.780;2024-01-30T11:40:28;101106.03;;;4.27;66.50
82784;BME280;72520;55.762;37.780;2024-01-30T11:43:30;101111.38;;;4.25;66.34
82784;BME280;72520;55.762;37.780;2024-01-30T11:46:35;101116.03;;;4.09;66.55
82784;BME280;72520;55.762;37.780;2024-01-30T11:49:38;101117.09;;;3.99;67.30
82784;BME280;72520;55.762;37.780;2024-01-30T11:52:40;101121.53;;;3.97;67.34
82784;BME280;72520;55.762;37.780;2024-01-30T11:55:49;101132.94;;;3.96;67.44
82784;BME280;72520;55.762;37.780;2024-01-30T11:58:51;101133.06;;;3.89;67.59
82784;BME280;72520;55.762;37.780;2024-01-30T12:01:55;101143.72;;;3.81;67.81
82784;BME280;72520;55.762;37.780;2024-01-30T12:04:57;101140.38;;;3.73;68.31
82784;BME280;72520;55.762;37.780;2024-01-30T12:07:59;101145.69;;;3.70;68.49
82784;BME280;72520;55.762;37.780;2024-01-30T12:11:02;101139.97;;;3.97;67.47
82784;BME280;72520;55.762;37.780;2024-01-30T12:14:05;101147.81;;;3.99;67.33
82784;BME280;72520;55.762;37.780;2024-01-30T12:17:09;101145.75;;;4.16;67.29
82784;BME280;72520;55.762;37.780;2024-01-30T12:20:12;101141.53;;;4.07;66.80
82784;BME280;72520;55.762;37.780;2024-01-30T12:23:15;101141.09;;;4.32;65.84
82784;BME280;72520;55.762;37.780;2024-01-30T12:26:20;101144.63;;;4.31;66.36
82784;BME280;72520;55.762;37.780;2024-01-30T12:29:22;101134.09;;;4.31;65.67
82784;BME280;72520;55.762;37.780;2024-01-30T12:32:26;101139.41;;;4.28;66.25
82784;BME280;72520;55.762;37.780;2024-01-30T12:35:29;101133.53;;;4.14;66.18
82784;BME280;72520;55.762;37.780;2024-01-30T12:38:32;101141.25;;;4.23;66.31
82784;BME280;72520;55.762;37.780;2024-01-30T12:41:34;101127.94;;;4.30;65.50
82784;BME280;72520;55.762;37.780;2024-01-30T12:44:36;101137.16;;;4.08;66.69
82784;BME280;72520;55.762;37.780;2024-01-30T12:47:41;101138.75;;;4.15;66.50
82784;BME280;72520;55.762;37.780;2024-01-30T12:50:43;101141.47;;;4.10;66.11
82784;BME280;72520;55.762;37.780;2024-01-30T12:53:45;101147.94;;;3.93;67.02
82784;BME280;72520;55.762;37.780;2024-01-30T12:56:49;101151.44;;;3.93;67.35
82784;BME280;72520;55.762;37.780;2024-01-30T12:59:51;101149.50;;;4.03;67.35
82784;BME280;72520;55.762;37.780;2024-01-30T13:02:54;101143.25;;;4.08;67.11
82784;BME280;72520;55.762;37.780;2024-01-30T13:05:57;101149.69;;;3.94;67.10
82784;BME280;72520;55.762;37.780;2024-01-30T13:08:59;101147.06;;;3.92;67.57
82784;BME280;72520;55.762;37.780;2024-01-30T13:12:01;101160.28;;;3.89;67.42
82784;BME280;72520;55.762;37.780;2024-01-30T13:15:04;101156.13;;;3.76;68.14
82784;BME280;72520;55.762;37.780;2024-01-30T13:18:10;101159.41;;;3.90;67.95
82784;BME280;72520;55.762;37.780;2024-01-30T13:21:12;101161.97;;;3.93;67.52
82784;BME280;72520;55.762;37.780;2024-01-30T13:24:14;101149.63;;;3.97;67.42
82784;BME280;72520;55.762;37.780;2024-01-30T13:27:17;101155.78;;;3.97;67.47
82784;BME280;72520;55.762;37.780;2024-01-30T13:30:19;101157.63;;;3.91;67.24
82784;BME280;72520;55.762;37.780;2024-01-30T13:33:23;101158.81;;;3.72;68.54
82784;BME280;72520;55.762;37.780;2024-01-30T13:36:25;101157.06;;;3.72;68.38
82784;BME280;72520;55.762;37.780;2024-01-30T13:39:28;101162.38;;;3.68;68.96
82784;BME280;72520;55.762;37.780;2024-01-30T13:42:30;101166.72;;;3.72;68.48
82784;BME280;72520;55.762;37.780;2024-01-30T13:45:32;101165.84;;;3.71;68.68
82784;BME280;72520;55.762;37.780;2024-01-30T13:48:36;101170.13;;;3.78;68.33
82784;BME280;72520;55.762;37.780;2024-01-30T13:51:38;101168.25;;;3.86;67.90
82784;BME280;72520;55.762;37.780;2024-01-30T13:54:41;101173.63;;;3.79;68.17
82784;BME280;72520;55.762;37.780;2024-01-30T13:57:43;101180.59;;;3.81;68.32
82784;BME280;72520;55.762;37.780;2024-01-30T14:00:45;101188.03;;;3.55;68.98
82784;BME280;72520;55.762;37.780;2024-01-30T14:03:49;101194.94;;;3.64;68.67
82784;BME280;72520;55.762;37.780;2024-01-30T14:06:51;101186.28;;;3.54;68.81
82784;BME280;72520;55.762;37.780;2024-01-30T14:09:53;101190.66;;;3.55;68.74
82784;BME280;72520;55.762;37.780;2024-01-30T14:12:55;101196.94;;;3.45;69.23
82784;BME280;72520;55.762;37.780;2024-01-30T14:15:57;101199.53;;;3.49;68.92
82784;BME280;72520;55.762;37.780;2024-01-30T14:19:01;101194.28;;;3.48;69.50
82784;BME280;72520;55.762;37.780;2024-01-30T14:22:03;101199.53;;;3.49;69.09
82784;BME280;72520;55.762;37.780;2024-01-30T14:25:08;101194.38;;;3.40;69.04
82784;BME280;72520;55.762;37.780;2024-01-30T14:28:11;101194.84;;;3.68;68.82
82784;BME280;72520;55.762;37.780;2024-01-30T14:31:13;101205.53;;;3.59;68.63
82784;BME280;72520;55.762;37.780;2024-01-30T14:34:18;101207.38;;;3.51;68.96
82784;BME280;72520;55.762;37.780;2024-01-30T14:37:21;101205.53;;;3.59;68.23
82784;BME280;72520;55.762;37.780;2024-01-30T14:40:24;101207.31;;;3.57;68.36
82784;BME280;72520;55.762;37.780;2024-01-30T14:43:26;101209.22;;;3.46;69.23
82784;BME280;72520;55.762;37.780;2024-01-30T14:46:28;101210.22;;;3.37;69.71
82784;BME280;72520;55.762;37.780;2024-01-30T14:49:32;101216.44;;;3.32;69.35
82784;BME280;72520;55.762;37.780;2024-01-30T14:52:34;101213.81;;;3.32;69.40
82784;BME280;72520;55.762;37.780;2024-01-30T14:55:37;101211.91;;;3.43;68.84
82784;BME280;72520;55.762;37.780;2024-01-30T14:58:39;101213.72;;;3.38;69.19
82784;BME280;72520;55.762;37.780;2024-01-30T15:01:41;101209.34;;;3.37;69.35
82784;BME280;72520;55.762;37.780;2024-01-30T15:04:45;101217.38;;;3.28;70.45
82784;BME280;72520;55.762;37.780;2024-01-30T15:07:47;101217.41;;;3.25;70.11
82784;BME280;72520;55.762;37.780;2024-01-30T15:10:50;101218.41;;;3.15;70.21
82784;BME280;72520;55.762;37.780;2024-01-30T15:13:52;101224.50;;;3.17;70.52
82784;BME280;72520;55.762;37.780;2024-01-30T15:16:55;101214.84;;;3.19;70.60
82784;BME280;72520;55.762;37.780;2024-01-30T15:19:58;101228.75;;;3.27;69.94
82784;BME280;72520;55.762;37.780;2024-01-30T15:23:01;101228.84;;;3.22;69.97
82784;BME280;72520;55.762;37.780;2024-01-30T15:26:03;101237.56;;;3.26;70.15
82784;BME280;72520;55.762;37.780;2024-01-30T15:29:05;101242.09;;;3.16;70.12
82784;BME280;72520;55.762;37.780;2024-01-30T15:32:08;101235.03;;;3.18;70.37
82784;BME280;72520;55.762;37.780;2024-01-30T15:35:11;101245.56;;;3.18;70.46
82784;BME280;72520;55.762;37.780;2024-01-30T15:38:14;101255.25;;;3.16;71.08
82784;BME280;72520;55.762;37.780;2024-01-30T15:41:17;101243.88;;;3.13;70.87
82784;BME280;72520;55.762;37.780;2024-01-30T15:44:19;101250.94;;;3.09;70.72
82784;BME280;72520;55.762;37.780;2024-01-30T15:47:21;101255.34;;;3.05;70.86
82784;BME280;72520;55.762;37.780;2024-01-30T15:50:25;101251.53;;;3.31;69.78
82784;BME280;72520;55.762;37.780;2024-01-30T15:53:27;101259.47;;;3.28;69.79
82784;BME280;72520;55.762;37.780;2024-01-30T15:56:29;101257.88;;;3.15;70.79